Time;durP1;ratioP1;P1;durP2;ratioP2;P2;SDS_P1;SDS_P2;PMS_P1;PMS_P2;Temp;Humidity;BMP_temperature;BMP_pressure;BME280_temperature;BME280_humidity;BME280_pressure;Samples;Min_cycle;Max_cycle;Signal;HPM_P1;HPM_P2
2022/11/04 00:02:05;;;;;;;8.57;5.30;;;14.90;99.90;;;;;;5011934;28;20216;-74
2022/11/04 00:04:32;;;;;;;8.33;4.97;;;14.90;99.90;;;;;;5013586;28;20589;-74
2022/11/04 00:06:59;;;;;;;8.37;5.33;;;15.00;99.90;;;;;;4993139;28;20734;-74
2022/11/04 00:09:29;;;;;;;6.53;4.80;;;15.00;99.90;;;;;;5012359;28;20197;-74
2022/11/04 00:14:42;;;;;;;6.57;5.00;;;15.00;99.90;;;;;;5004282;28;20259;-74
2022/11/04 00:17:18;;;;;;;8.33;4.80;;;15.00;99.90;;;;;;5012855;28;20207;-74
2022/11/04 00:33:24;;;;;;;7.10;4.60;;;14.90;99.90;;;;;;5007496;28;20558;-74
2022/11/04 00:33:48;;;;;;;5.73;4.53;;;14.90;99.90;;;;;;4997140;28;20216;-74
2022/11/04 00:36:15;;;;;;;6.37;4.67;;;14.90;99.90;;;;;;5015253;28;20185;-74
2022/11/04 00:38:43;;;;;;;9.70;4.63;;;14.90;99.90;;;;;;4996704;28;20177;-74
2022/11/04 00:41:24;;;;;;;8.67;4.33;;;14.90;99.90;;;;;;5028002;28;20184;-74
2022/11/04 00:44:03;;;;;;;6.60;4.47;;;14.90;99.90;;;;;;4994761;28;20729;-74
2022/11/04 00:46:32;;;;;;;6.53;4.73;;;14.90;99.90;;;;;;5006444;28;20220;-74
2022/11/04 00:48:59;;;;;;;5.93;4.30;;;14.90;99.90;;;;;;5010149;28;20723;-74
2022/11/04 00:51:27;;;;;;;7.20;4.60;;;14.90;99.90;;;;;;4978489;28;20543;-74
2022/11/04 00:53:54;;;;;;;10.80;4.83;;;14.90;99.90;;;;;;5012732;28;20279;-74
2022/11/04 00:56:21;;;;;;;7.20;4.83;;;14.80;99.90;;;;;;5013554;28;20264;-75
2022/11/04 00:58:49;;;;;;;7.73;4.77;;;14.80;99.90;;;;;;4990622;28;20188;-74
2022/11/04 01:01:18;;;;;;;6.53;4.33;;;14.80;99.90;;;;;;4995793;28;20188;-74
2022/11/04 01:03:52;;;;;;;8.27;4.03;;;14.90;99.90;;;;;;5000243;28;20737;-74
2022/11/04 01:06:21;;;;;;;5.97;4.37;;;14.80;99.90;;;;;;5018930;28;20192;-74
2022/11/04 01:08:48;;;;;;;5.03;4.03;;;14.80;99.90;;;;;;5007764;28;20276;-74
2022/11/04 01:11:16;;;;;;;7.87;4.47;;;14.80;99.90;;;;;;4992991;28;20546;-74
2022/11/04 01:13:42;;;;;;;6.93;4.07;;;14.80;99.90;;;;;;5011526;28;20195;-74
2022/11/04 01:16:10;;;;;;;5.63;4.30;;;14.80;99.90;;;;;;5020783;28;20190;-74
2022/11/04 01:18:38;;;;;;;7.23;4.20;;;14.80;99.90;;;;;;5007774;28;20200;-74
2022/11/04 01:21:07;;;;;;;6.27;3.90;;;14.80;99.90;;;;;;5010697;28;20197;-74
2022/11/04 01:23:34;;;;;;;7.70;4.07;;;14.80;99.90;;;;;;5011111;28;20205;-74
2022/11/04 01:26:05;;;;;;;7.57;4.10;;;14.80;99.90;;;;;;4994263;28;20211;-74
2022/11/04 01:28:31;;;;;;;6.70;4.30;;;14.80;99.90;;;;;;5011869;28;20291;-74
2022/11/04 01:30:57;;;;;;;9.47;4.07;;;14.80;99.90;;;;;;5011123;28;20221;-74
2022/11/04 01:33:24;;;;;;;6.87;4.43;;;14.80;99.90;;;;;;5009868;28;20227;-74
2022/11/04 01:35:51;;;;;;;5.17;4.07;;;14.80;99.90;;;;;;5005433;28;20515;-74
2022/11/04 01:38:18;;;;;;;6.30;4.30;;;14.80;99.90;;;;;;4994038;28;20215;-74
2022/11/04 01:40:45;;;;;;;7.47;3.67;;;14.80;99.90;;;;;;5011258;28;20191;-74
2022/11/04 01:43:19;;;;;;;8.77;3.90;;;14.80;99.90;;;;;;5007470;28;20216;-74
2022/11/04 01:46:00;;;;;;;5.97;4.30;;;14.80;99.90;;;;;;5007151;28;20217;-74
2022/11/04 01:48:33;;;;;;;6.47;4.47;;;14.90;99.90;;;;;;5017080;28;20660;-74
2022/11/04 01:51:00;;;;;;;6.20;4.23;;;14.80;99.90;;;;;;5009769;28;20185;-74
2022/11/04 01:53:40;;;;;;;5.80;3.83;;;14.80;99.90;;;;;;4993764;28;20280;-74
2022/11/04 01:56:11;;;;;;;6.83;3.90;;;14.80;99.90;;;;;;4974504;28;20181;-74
2022/11/04 01:58:47;;;;;;;5.40;3.97;;;14.80;99.90;;;;;;4989939;28;20256;-74
2022/11/04 02:01:13;;;;;;;7.03;4.00;;;14.90;99.90;;;;;;5010928;28;20188;-74
2022/11/04 02:03:52;;;;;;;6.87;4.53;;;14.90;99.90;;;;;;5014077;28;20224;-74
2022/11/04 02:06:20;;;;;;;9.53;4.57;;;14.90;99.90;;;;;;5011909;28;20870;-74
2022/11/04 02:08:49;;;;;;;7.13;4.37;;;14.90;99.90;;;;;;5010721;28;20185;-74
2022/11/04 02:14:01;;;;;;;7.00;4.43;;;14.90;99.90;;;;;;5011807;28;20764;-76
2022/11/04 02:16:48;;;;;;;17.13;5.77;;;14.80;99.90;;;;;;5005065;28;20234;-76
2022/11/04 02:19:32;;;;;;;11.30;4.63;;;14.90;99.90;;;;;;5008865;28;20247;-76
2022/11/04 02:22:35;;;;;;;7.00;4.17;;;14.80;99.90;;;;;;5015494;28;20192;-76
2022/11/04 02:25:23;;;;;;;8.83;4.93;;;14.80;99.90;;;;;;4991851;28;20172;-76
2022/11/04 02:28:27;;;;;;;7.70;4.17;;;14.80;99.90;;;;;;5015743;28;20696;-76
2022/11/04 02:31:39;;;;;;;7.47;4.40;;;14.70;99.90;;;;;;4997427;28;20185;-76
2022/11/04 02:34:21;;;;;;;10.10;4.37;;;14.80;99.90;;;;;;5006518;28;20530;-76
2022/11/04 02:37:10;;;;;;;6.67;4.27;;;14.80;99.90;;;;;;4991454;28;20187;-76
2022/11/04 02:40:00;;;;;;;8.10;4.73;;;14.80;99.90;;;;;;4992366;28;20203;-76
2022/11/04 02:43:14;;;;;;;8.03;4.50;;;14.80;99.90;;;;;;5003313;28;20753;-76
2022/11/04 02:45:58;;;;;;;6.97;4.40;;;14.80;99.90;;;;;;4956741;28;20208;-76
2022/11/04 02:48:35;;;;;;;5.30;4.50;;;14.70;99.90;;;;;;4991190;28;20233;-76
2022/11/04 02:51:24;;;;;;;7.20;3.80;;;14.70;99.90;;;;;;5009471;28;20195;-76
2022/11/04 02:53:59;;;;;;;9.53;4.40;;;14.70;99.90;;;;;;5016740;28;20187;-75
2022/11/04 02:56:28;;;;;;;8.63;4.33;;;14.80;99.90;;;;;;4989066;28;20264;-76
2022/11/04 02:59:02;;;;;;;8.20;4.93;;;14.70;99.90;;;;;;5004771;28;20231;-76
2022/11/04 03:01:36;;;;;;;6.07;4.60;;;14.70;99.90;;;;;;4991918;28;20192;-76
2022/11/04 03:04:23;;;;;;;5.63;4.30;;;14.80;99.90;;;;;;5001155;28;20909;-76
2022/11/04 03:06:53;;;;;;;11.97;5.10;;;14.80;99.90;;;;;;4998811;28;20550;-76
2022/11/04 03:09:22;;;;;;;8.27;4.67;;;14.80;99.90;;;;;;5010210;28;20195;-76
2022/11/04 03:12:00;;;;;;;7.37;4.90;;;14.80;99.90;;;;;;5007633;28;20181;-77
2022/11/04 03:14:36;;;;;;;7.83;4.90;;;14.70;99.90;;;;;;5007809;28;20655;-76
2022/11/04 03:17:20;;;;;;;7.43;4.80;;;14.70;99.90;;;;;;4992882;28;20185;-76
2022/11/04 03:19:57;;;;;;;8.07;4.50;;;14.70;99.90;;;;;;5008395;28;20185;-76
2022/11/04 03:22:35;;;;;;;8.27;4.93;;;14.70;99.90;;;;;;5003993;28;20601;-76
2022/11/04 03:25:08;;;;;;;8.03;4.87;;;14.70;99.90;;;;;;5014543;28;20279;-76
2022/11/04 03:28:29;;;;;;;9.27;4.63;;;14.60;99.90;;;;;;4992887;28;20189;-75
2022/11/04 03:31:05;;;;;;;7.50;5.10;;;14.60;99.90;;;;;;4951467;28;20206;-75
2022/11/04 03:33:46;;;;;;;4.97;4.47;;;14.50;99.90;;;;;;5005047;28;20539;-76
2022/11/04 03:36:13;;;;;;;11.50;4.97;;;14.50;99.90;;;;;;5013798;28;20523;-75
2022/11/04 03:38:39;;;;;;;11.03;5.10;;;14.50;99.90;;;;;;5009850;28;20677;-76
2022/11/04 03:41:19;;;;;;;9.10;5.00;;;14.50;99.90;;;;;;5008547;28;20192;-76
2022/11/04 03:43:46;;;;;;;9.00;4.77;;;14.50;99.90;;;;;;5007158;28;20215;-75
2022/11/04 03:46:13;;;;;;;6.33;4.53;;;14.50;99.90;;;;;;4992589;28;20185;-76
2022/11/04 03:48:41;;;;;;;6.97;5.10;;;14.40;99.90;;;;;;4990887;28;20188;-76
2022/11/04 03:51:09;;;;;;;9.03;5.13;;;14.40;99.90;;;;;;5006521;28;20181;-75
2022/11/04 03:53:36;;;;;;;6.60;5.07;;;14.40;99.90;;;;;;5015016;28;20196;-76
2022/11/04 03:56:51;;;;;;;5.93;5.33;;;14.40;99.90;;;;;;5008575;28;20515;-76
2022/11/04 03:59:49;;;;;;;10.33;5.40;;;14.30;99.90;;;;;;5018018;28;20748;-76
2022/11/04 04:02:59;;;;;;;8.33;5.07;;;14.40;99.90;;;;;;5005656;28;20275;-76
2022/11/04 04:05:52;;;;;;;8.40;4.93;;;14.30;99.90;;;;;;4930837;29;20202;-76
2022/11/04 04:08:30;;;;;;;6.27;4.83;;;14.30;99.90;;;;;;5008411;28;20303;-76
2022/11/04 04:11:20;;;;;;;8.40;5.23;;;14.30;99.90;;;;;;4990012;28;20276;-76
2022/11/04 04:14:11;;;;;;;5.57;4.87;;;14.30;99.90;;;;;;5000006;28;20223;-76
2022/11/04 04:16:46;;;;;;;7.67;4.97;;;14.30;99.90;;;;;;4993105;28;20189;-76
2022/11/04 04:19:22;;;;;;;9.53;5.47;;;14.30;99.90;;;;;;4990805;28;20194;-76
2022/11/04 04:21:57;;;;;;;9.57;6.20;;;14.30;99.90;;;;;;5009085;28;20247;-75
2022/11/04 04:27:31;;;;;;;6.83;5.17;;;14.30;99.90;;;;;;5007933;28;20193;-76
2022/11/04 04:30:16;;;;;;;6.10;5.07;;;14.30;99.90;;;;;;5008948;28;20177;-76
2022/11/04 04:33:05;;;;;;;7.93;5.43;;;14.30;99.90;;;;;;4982917;28;20618;-76
2022/11/04 04:35:51;;;;;;;9.03;5.70;;;14.30;99.90;;;;;;5007114;28;20227;-76
2022/11/04 04:47:21;;;;;;;7.20;5.53;;;14.40;99.90;;;;;;5003938;28;20571;-76
2022/11/04 04:49:53;;;;;;;8.70;5.77;;;14.40;99.90;;;;;;4987466;28;20188;-75
2022/11/04 04:52:22;;;;;;;9.70;5.83;;;14.30;99.90;;;;;;5007436;28;20184;-76
2022/11/04 04:54:48;;;;;;;7.10;5.30;;;14.40;99.90;;;;;;5015170;28;20200;-76
2022/11/04 04:57:15;;;;;;;11.07;5.80;;;14.40;99.90;;;;;;5012221;28;20556;-75
2022/11/04 04:59:45;;;;;;;7.13;6.03;;;14.40;99.90;;;;;;5007473;28;20272;-76
2022/11/04 05:02:11;;;;;;;11.37;5.80;;;14.50;99.90;;;;;;5010356;28;20655;-76
2022/11/04 05:04:37;;;;;;;11.17;5.70;;;14.50;99.90;;;;;;5000823;28;20289;-76
2022/11/04 05:07:05;;;;;;;7.80;5.53;;;14.60;99.90;;;;;;5017266;28;20192;-76
2022/11/04 05:09:32;;;;;;;8.43;5.73;;;14.50;99.90;;;;;;4989106;28;20280;-75
2022/11/04 05:11:58;;;;;;;10.03;5.87;;;14.50;99.90;;;;;;5013094;28;20191;-76
2022/11/04 05:14:25;;;;;;;8.43;6.20;;;14.60;99.90;;;;;;4987689;28;20815;-76
2022/11/04 05:16:51;;;;;;;9.13;5.80;;;14.60;99.90;;;;;;5013826;28;20184;-76
2022/11/04 05:19:17;;;;;;;9.27;5.90;;;14.60;99.90;;;;;;5007496;28;20319;-76
2022/11/04 05:21:44;;;;;;;7.53;5.80;;;14.60;99.90;;;;;;5010285;28;20184;-76
2022/11/04 05:24:10;;;;;;;9.73;6.00;;;14.60;99.90;;;;;;4992703;28;20292;-76
2022/11/04 05:26:37;;;;;;;8.23;5.90;;;14.70;99.90;;;;;;4993410;28;20283;-76
2022/11/04 05:29:03;;;;;;;10.47;6.00;;;14.70;99.90;;;;;;5001533;28;20696;-76
2022/11/04 05:31:29;;;;;;;6.93;5.93;;;14.80;99.90;;;;;;5011106;28;20196;-76
2022/11/04 05:33:58;;;;;;;9.63;6.13;;;14.80;99.90;;;;;;5007660;28;20189;-76
2022/11/04 05:36:25;;;;;;;8.93;6.37;;;14.90;99.90;;;;;;5005542;28;20678;-76
2022/11/04 05:38:56;;;;;;;7.77;6.00;;;14.90;99.90;;;;;;5008033;28;20184;-75
2022/11/04 05:41:25;;;;;;;8.07;6.17;;;15.00;99.90;;;;;;5007245;28;20185;-76
2022/11/04 05:43:58;;;;;;;9.40;6.43;;;15.10;99.90;;;;;;4989184;28;20235;-76
2022/11/04 05:46:26;;;;;;;9.93;6.40;;;15.20;99.90;;;;;;5002849;28;20185;-76
2022/11/04 05:48:53;;;;;;;11.20;6.23;;;15.30;99.90;;;;;;4985034;28;20475;-76
2022/11/04 05:51:23;;;;;;;7.70;6.23;;;15.30;99.90;;;;;;4985032;28;20598;-76
2022/11/04 05:53:52;;;;;;;10.23;5.83;;;15.40;99.90;;;;;;4981903;28;20197;-76
2022/11/04 05:56:18;;;;;;;9.87;6.20;;;15.40;99.90;;;;;;4992282;28;20363;-76
2022/11/04 05:58:44;;;;;;;9.53;6.17;;;15.50;99.90;;;;;;4989924;28;20181;-76
2022/11/04 06:01:11;;;;;;;8.10;6.43;;;15.50;99.90;;;;;;4999416;28;20182;-76
2022/11/04 06:03:39;;;;;;;7.37;6.10;;;15.50;99.90;;;;;;5004829;28;20220;-76
2022/11/04 06:06:05;;;;;;;9.40;5.87;;;15.50;99.90;;;;;;5006693;28;20196;-76
2022/11/04 06:08:31;;;;;;;7.83;6.50;;;15.60;99.90;;;;;;5006518;28;20547;-76
2022/11/04 06:10:58;;;;;;;10.30;6.23;;;15.60;99.90;;;;;;5006222;28;20197;-76
2022/11/04 06:13:24;;;;;;;8.50;6.27;;;15.70;99.90;;;;;;5006433;28;20708;-76
2022/11/04 06:15:51;;;;;;;9.70;6.37;;;15.70;99.90;;;;;;5006380;28;20323;-76
2022/11/04 06:18:17;;;;;;;9.67;6.27;;;15.80;99.90;;;;;;4998495;28;20196;-76
2022/11/04 06:20:43;;;;;;;12.37;6.50;;;15.80;99.90;;;;;;5003515;28;20228;-76
2022/11/04 06:23:09;;;;;;;10.43;6.87;;;15.80;99.90;;;;;;4989969;28;20935;-75
2022/11/04 06:25:36;;;;;;;12.40;7.13;;;15.90;99.90;;;;;;5010549;28;20210;-76
2022/11/04 06:28:03;;;;;;;10.90;7.87;;;15.90;99.90;;;;;;5001348;28;20247;-76
2022/11/04 06:30:29;;;;;;;12.77;7.07;;;15.90;99.90;;;;;;4985613;28;20189;-76
2022/11/04 06:32:55;;;;;;;11.50;7.17;;;16.00;99.90;;;;;;4986284;28;20569;-76
2022/11/04 06:35:22;;;;;;;11.30;6.40;;;16.00;99.90;;;;;;5015115;28;20192;-76
2022/11/04 06:37:48;;;;;;;9.87;6.60;;;16.00;99.90;;;;;;5009246;28;20185;-76
2022/11/04 06:40:15;;;;;;;14.83;6.30;;;16.00;99.90;;;;;;4987229;28;20281;-76
2022/11/04 06:42:41;;;;;;;7.90;5.77;;;16.10;99.90;;;;;;5004762;28;20208;-76
2022/11/04 06:45:10;;;;;;;11.33;5.77;;;16.10;99.90;;;;;;4990963;28;20185;-76
2022/11/04 06:47:36;;;;;;;12.03;6.60;;;16.20;99.90;;;;;;4990049;28;20645;-75
2022/11/04 06:50:03;;;;;;;7.63;5.87;;;16.20;99.90;;;;;;5006292;28;20547;-76
2022/11/04 06:52:30;;;;;;;9.23;6.10;;;16.20;99.90;;;;;;5010658;28;20790;-75
2022/11/04 06:54:56;;;;;;;9.90;5.90;;;16.20;99.90;;;;;;5001636;28;20201;-76
2022/11/04 06:57:24;;;;;;;7.63;5.50;;;16.30;99.90;;;;;;5010331;28;20216;-76
2022/11/04 06:59:50;;;;;;;9.10;5.67;;;16.30;99.90;;;;;;5019154;28;20223;-76
2022/11/04 07:02:16;;;;;;;9.03;5.60;;;16.40;99.90;;;;;;5020603;28;21158;-76
2022/11/04 07:04:42;;;;;;;11.23;5.30;;;16.40;99.90;;;;;;4982983;28;20568;-76
2022/11/04 07:07:09;;;;;;;8.40;5.50;;;16.40;99.90;;;;;;4988397;28;20280;-76
2022/11/04 07:09:35;;;;;;;8.33;5.17;;;16.40;99.90;;;;;;5023233;28;20195;-76
2022/11/04 07:12:02;;;;;;;7.23;4.67;;;16.40;99.90;;;;;;4994061;28;20196;-76
2022/11/04 07:14:29;;;;;;;10.20;4.60;;;16.50;99.90;;;;;;4992567;28;20193;-76
2022/11/04 07:16:55;;;;;;;6.50;4.43;;;16.50;99.90;;;;;;5008426;28;20230;-76
2022/11/04 07:19:21;;;;;;;11.50;5.43;;;16.50;99.90;;;;;;5008291;28;20196;-76
2022/11/04 07:21:48;;;;;;;5.83;4.40;;;16.50;99.90;;;;;;4988520;28;20235;-76
2022/11/04 07:24:39;;;;;;;9.23;4.97;;;16.60;99.90;;;;;;4986362;28;20734;-76
2022/11/04 07:27:08;;;;;;;9.07;4.40;;;16.60;99.90;;;;;;5006066;28;20682;-76
2022/11/04 07:29:34;;;;;;;7.83;4.43;;;16.70;99.90;;;;;;5010461;28;20199;-76
2022/11/04 07:32:01;;;;;;;6.03;4.33;;;16.80;99.90;;;;;;5010650;28;20259;-75
2022/11/04 07:34:27;;;;;;;8.93;4.47;;;16.80;99.90;;;;;;5014491;28;21197;-76
2022/11/04 07:36:54;;;;;;;7.53;4.33;;;16.80;99.90;;;;;;5007192;28;20283;-76
2022/11/04 07:39:21;;;;;;;6.30;4.47;;;16.80;99.90;;;;;;5006745;28;20264;-76
2022/11/04 07:41:47;;;;;;;8.57;4.10;;;16.90;99.90;;;;;;4993392;28;20530;-76
2022/11/04 07:44:16;;;;;;;13.87;4.20;;;16.90;99.90;;;;;;5008432;28;20219;-76
2022/11/04 07:46:42;;;;;;;6.07;3.83;;;17.00;99.90;;;;;;5012271;28;20193;-76
2022/11/04 07:49:08;;;;;;;5.77;3.87;;;17.00;99.90;;;;;;5014336;28;20188;-76
2022/11/04 07:51:34;;;;;;;4.47;3.50;;;17.00;99.90;;;;;;5005002;28;20267;-76
2022/11/04 07:54:01;;;;;;;10.90;4.20;;;17.00;99.90;;;;;;5012445;28;20588;-76
2022/11/04 07:56:27;;;;;;;6.23;3.50;;;16.90;99.90;;;;;;5007869;28;20204;-76
2022/11/04 07:58:53;;;;;;;12.30;3.80;;;17.00;99.90;;;;;;5009376;28;20189;-76
2022/11/04 08:01:22;;;;;;;4.63;3.17;;;17.10;99.90;;;;;;5010925;28;20290;-76
2022/11/04 08:03:54;;;;;;;5.57;3.23;;;17.10;99.90;;;;;;4988112;28;20221;-76
2022/11/04 08:06:21;;;;;;;7.50;3.20;;;17.20;99.90;;;;;;5004369;28;20208;-76
2022/11/04 08:08:47;;;;;;;6.50;3.20;;;17.20;99.90;;;;;;4999368;28;20207;-76
2022/11/04 08:11:18;;;;;;;4.63;3.00;;;17.20;99.90;;;;;;5017067;28;20192;-76
2022/11/04 08:13:46;;;;;;;6.30;3.00;;;17.20;99.90;;;;;;5011789;28;20762;-76
2022/11/04 08:16:17;;;;;;;4.90;3.20;;;17.30;99.90;;;;;;5009137;28;20246;-76
2022/11/04 08:18:44;;;;;;;8.87;3.27;;;17.30;99.90;;;;;;4988817;28;20693;-76
2022/11/04 08:21:12;;;;;;;7.90;2.63;;;17.30;99.90;;;;;;4989539;28;20184;-76
2022/11/04 08:23:38;;;;;;;8.10;3.60;;;17.40;99.90;;;;;;5008045;28;20299;-76
2022/11/04 08:26:10;;;;;;;7.63;3.40;;;17.50;99.90;;;;;;4993693;28;20954;-76
2022/11/04 08:28:37;;;;;;;5.97;3.07;;;17.50;99.90;;;;;;4991345;28;20562;-76
2022/11/04 08:31:09;;;;;;;4.13;2.80;;;17.60;99.90;;;;;;5008412;28;20197;-76
2022/11/04 08:33:36;;;;;;;7.47;3.13;;;17.60;99.90;;;;;;4992281;28;20279;-76
2022/11/04 08:36:08;;;;;;;9.10;3.10;;;17.70;99.90;;;;;;5002184;28;20188;-76
2022/11/04 08:38:35;;;;;;;5.40;3.17;;;17.70;99.90;;;;;;4984948;28;20307;-76
2022/11/04 08:41:06;;;;;;;4.03;2.50;;;17.90;99.90;;;;;;4988111;28;20327;-76
2022/11/04 08:43:33;;;;;;;3.90;3.00;;;17.90;99.90;;;;;;4989442;28;20235;-76
2022/11/04 08:46:01;;;;;;;4.13;2.70;;;17.90;99.90;;;;;;4989795;28;20625;-76
2022/11/04 08:48:28;;;;;;;13.57;2.80;;;17.90;99.90;;;;;;4982532;28;20189;-77
2022/11/04 08:50:57;;;;;;;4.83;2.87;;;17.90;99.90;;;;;;4971782;28;20670;-76
2022/11/04 08:53:25;;;;;;;10.40;2.80;;;17.90;99.90;;;;;;4970084;28;20192;-76
2022/11/04 08:55:51;;;;;;;7.00;2.80;;;18.00;99.90;;;;;;5004759;28;20184;-76
2022/11/04 08:58:18;;;;;;;12.43;3.30;;;18.10;99.90;;;;;;5009999;28;20184;-76
2022/11/04 09:00:44;;;;;;;4.63;2.40;;;18.20;99.90;;;;;;4993166;28;20238;-76
2022/11/04 09:03:11;;;;;;;5.70;2.80;;;18.20;99.90;;;;;;5009650;28;20205;-76
2022/11/04 09:05:46;;;;;;;8.03;2.60;;;18.20;99.90;;;;;;5027608;28;20196;-76
2022/11/04 09:08:16;;;;;;;4.83;2.60;;;18.30;99.90;;;;;;5011118;28;20732;-76
2022/11/04 09:10:45;;;;;;;6.57;2.60;;;18.50;99.90;;;;;;5006714;28;20490;-76
2022/11/04 09:13:14;;;;;;;5.53;2.80;;;18.60;99.90;;;;;;5022583;28;20185;-76
2022/11/04 09:15:41;;;;;;;7.20;2.83;;;18.70;99.90;;;;;;5008041;28;20275;-76
2022/11/04 09:18:08;;;;;;;3.40;2.60;;;18.70;99.90;;;;;;5005874;28;20185;-77
2022/11/04 09:20:38;;;;;;;9.40;4.00;;;18.70;99.90;;;;;;5023011;28;20228;-77
2022/11/04 09:23:06;;;;;;;7.60;4.00;;;18.90;99.90;;;;;;5006343;28;20213;-77
2022/11/04 09:25:34;;;;;;;10.73;4.67;;;19.20;99.90;;;;;;4990309;28;20177;-77
2022/11/04 09:28:01;;;;;;;7.97;3.83;;;19.30;99.90;;;;;;4989454;28;20184;-77
2022/11/04 09:30:27;;;;;;;14.13;4.10;;;19.40;99.90;;;;;;5006658;28;20181;-76
2022/11/04 09:32:53;;;;;;;10.80;4.23;;;19.60;99.90;;;;;;4985775;28;20193;-77
2022/11/04 09:35:20;;;;;;;8.33;4.30;;;19.70;99.90;;;;;;5018923;28;20185;-77
2022/11/04 09:37:47;;;;;;;9.13;4.10;;;19.90;99.90;;;;;;5005499;28;20263;-77
2022/11/04 09:40:22;;;;;;;8.67;3.77;;;19.90;99.90;;;;;;4989807;28;20704;-77
2022/11/04 09:43:07;;;;;;;5.77;4.17;;;20.00;99.90;;;;;;5006238;28;20216;-77
2022/11/04 09:45:38;;;;;;;8.00;4.20;;;20.10;99.90;;;;;;4990718;28;20219;-77
2022/11/04 09:48:25;;;;;;;7.33;4.10;;;20.10;99.90;;;;;;5004056;28;20804;-77
2022/11/04 09:50:58;;;;;;;6.93;4.20;;;20.30;99.90;;;;;;4991204;28;20287;-76
2022/11/04 09:53:48;;;;;;;6.10;3.63;;;20.30;99.90;;;;;;4991287;28;20181;-77
2022/11/04 09:56:27;;;;;;;5.97;4.10;;;20.30;99.90;;;;;;4993469;28;20199;-77
2022/11/04 09:58:54;;;;;;;9.97;3.80;;;20.30;99.90;;;;;;5008271;28;20271;-77
2022/11/04 10:01:50;;;;;;;7.50;4.20;;;20.50;99.90;;;;;;4991903;28;20191;-77
2022/11/04 10:04:41;;;;;;;9.10;3.80;;;20.60;99.90;;;;;;5001162;28;20220;-77
2022/11/04 10:07:26;;;;;;;9.57;4.00;;;20.70;99.90;;;;;;5007215;28;20711;-77
2022/11/04 10:10:36;;;;;;;11.50;4.40;;;20.80;99.90;;;;;;4990175;28;20192;-77
2022/11/04 10:13:18;;;;;;;7.83;3.83;;;21.10;99.90;;;;;;5003805;28;20276;-77
2022/11/04 10:16:17;;;;;;;5.83;3.93;;;21.20;99.90;;;;;;5022998;28;20188;-77
2022/11/04 10:19:07;;;;;;;9.10;4.10;;;21.40;99.90;;;;;;5007780;28;20603;-77
2022/11/04 10:22:01;;;;;;;11.07;3.73;;;21.50;99.90;;;;;;5015333;28;20176;-76
2022/11/04 10:25:00;;;;;;;5.32;3.40;;;22.80;99.90;;;;;;5013634;28;20655;-76
2022/11/04 10:27:36;;;;;;;10.10;3.65;;;24.30;99.90;;;;;;5007905;28;20533;-76
2022/11/04 10:30:20;;;;;;;5.43;3.47;;;26.40;99.90;;;;;;5010887;28;20192;-75
2022/11/04 10:33:26;;;;;;;9.57;4.20;;;27.40;99.90;;;;;;4987790;28;20211;-77
2022/11/04 10:36:00;;;;;;;5.63;3.63;;;26.00;99.90;;;;;;4993872;28;20228;-77
2022/11/04 10:38:49;;;;;;;7.07;3.38;;;24.70;99.90;;;;;;4995047;28;20196;-76
2022/11/04 10:41:36;;;;;;;10.32;3.55;;;23.70;99.90;;;;;;5013616;28;20693;-77
2022/11/04 10:44:28;;;;;;;10.05;4.03;;;23.10;99.90;;;;;;5008638;28;20240;-77
2022/11/04 10:48:01;;;;;;;5.82;3.50;;;22.70;99.90;;;;;;4994254;28;20251;-76
2022/11/04 10:50:36;;;;;;;8.48;3.40;;;22.90;99.90;;;;;;4981765;28;20201;-77
2022/11/04 10:53:19;;;;;;;7.43;3.33;;;22.90;99.90;;;;;;5006626;28;20188;-77
2022/11/04 10:56:18;;;;;;;7.43;3.50;;;23.10;99.90;;;;;;5007588;28;20189;-77
2022/11/04 10:58:47;;;;;;;9.05;3.60;;;23.40;99.90;;;;;;4993126;28;20208;-77
2022/11/04 11:01:33;;;;;;;6.97;3.70;;;24.60;99.90;;;;;;5008238;28;20538;-77
2022/11/04 11:04:06;;;;;;;6.18;3.13;;;23.20;99.90;;;;;;4990877;28;20213;-77
2022/11/04 11:06:35;;;;;;;10.38;3.47;;;22.60;99.90;;;;;;4976112;28;20231;-75
2022/11/04 11:09:31;;;;;;;8.10;3.78;;;22.40;99.90;;;;;;4999461;28;20243;-77
2022/11/04 11:12:02;;;;;;;12.82;3.83;;;22.30;99.90;;;;;;5003751;28;20223;-77
2022/11/04 11:14:28;;;;;;;7.38;4.43;;;22.20;99.90;;;;;;5024889;28;20200;-77
2022/11/04 11:17:18;;;;;;;8.93;3.75;;;22.20;99.90;;;;;;5010255;28;20189;-78
2022/11/04 11:19:54;;;;;;;9.13;3.50;;;22.20;99.90;;;;;;5017813;28;20275;-77
2022/11/04 11:22:40;;;;;;;7.93;3.58;;;22.30;99.90;;;;;;4988078;28;20677;-77
2022/11/04 11:25:31;;;;;;;7.57;3.80;;;22.30;99.90;;;;;;5008602;28;20255;-76
2022/11/04 11:28:04;;;;;;;9.82;3.63;;;22.40;99.90;;;;;;5005392;28;20661;-76
2022/11/04 11:30:47;;;;;;;7.65;3.42;;;22.30;99.90;;;;;;5017794;28;20644;-77
2022/11/04 11:33:26;;;;;;;5.20;3.42;;;22.30;99.90;;;;;;5024377;28;20185;-77
2022/11/04 11:35:59;;;;;;;9.13;3.70;;;22.30;99.90;;;;;;4992194;28;20189;-76
2022/11/04 11:38:33;;;;;;;10.40;3.40;;;22.30;99.90;;;;;;5010115;28;20224;-77
2022/11/04 11:41:12;;;;;;;3.73;3.13;;;22.30;99.90;;;;;;5009543;28;20177;-78
2022/11/04 11:43:50;;;;;;;5.50;3.22;;;22.20;99.90;;;;;;4991140;28;20661;-77
2022/11/04 11:46:27;;;;;;;10.63;3.70;;;22.20;99.90;;;;;;4992737;28;20184;-77
2022/11/04 11:49:02;;;;;;;4.43;3.10;;;22.20;99.90;;;;;;5024588;28;20176;-77
2022/11/04 11:51:37;;;;;;;7.93;3.55;;;22.20;99.90;;;;;;5000281;28;20562;-77
2022/11/04 11:54:34;;;;;;;7.95;4.90;;;22.30;99.90;;;;;;4999203;28;20653;-76
2022/11/04 11:57:25;;;;;;;8.40;3.67;;;22.30;99.90;;;;;;4997403;28;20172;-77
2022/11/04 12:00:00;;;;;;;6.07;3.47;;;22.20;99.90;;;;;;4995362;28;20184;-77
2022/11/04 12:03:10;;;;;;;5.35;3.53;;;22.20;99.90;;;;;;5027345;28;21040;-77
2022/11/04 12:06:14;;;;;;;8.70;3.78;;;22.30;99.90;;;;;;4943711;28;20228;-77
2022/11/04 12:09:26;;;;;;;5.65;3.35;;;22.10;99.90;;;;;;5009198;28;20730;-77
2022/11/04 12:12:28;;;;;;;5.20;3.47;;;22.10;99.90;;;;;;4991247;28;20709;-77
2022/11/04 12:15:44;;;;;;;5.67;3.30;;;22.10;99.90;;;;;;4989781;28;20189;-77
2022/11/04 12:18:59;;;;;;;9.63;3.60;;;22.00;99.90;;;;;;4977949;28;20194;-77
2022/11/04 12:21:35;;;;;;;6.80;3.83;;;22.00;99.90;;;;;;4995136;28;20607;-77
2022/11/04 12:24:41;;;;;;;4.63;3.47;;;21.70;99.90;;;;;;5017212;28;20530;-77
2022/11/04 12:27:34;;;;;;;5.13;3.53;;;21.50;99.90;;;;;;5016009;28;20180;-77
2022/11/04 12:30:13;;;;;;;9.00;3.57;;;21.30;99.90;;;;;;4994547;28;20184;-77
2022/11/04 12:33:18;;;;;;;7.53;3.40;;;21.20;99.90;;;;;;4980730;28;20181;-77
2022/11/04 12:36:33;;;;;;;6.57;4.37;;;21.10;99.90;;;;;;5016901;28;20181;-77
2022/11/04 12:39:12;;;;;;;8.40;4.10;;;21.00;99.90;;;;;;4982614;28;20193;-77
2022/11/04 12:42:13;;;;;;;9.60;3.80;;;20.80;99.90;;;;;;5010038;28;20181;-76
2022/11/04 12:45:13;;;;;;;8.93;4.27;;;20.80;99.90;;;;;;5006745;28;20223;-77
2022/11/04 12:47:44;;;;;;;6.30;3.87;;;20.70;99.90;;;;;;4989622;28;20181;-77
2022/11/04 12:50:47;;;;;;;10.37;4.27;;;20.60;99.90;;;;;;5009254;28;20553;-77
2022/11/04 12:53:41;;;;;;;11.20;4.40;;;20.40;99.90;;;;;;4991378;28;20620;-77
2022/11/04 12:56:24;;;;;;;9.87;4.10;;;20.40;99.90;;;;;;5001118;28;20774;-77
2022/11/04 12:59:19;;;;;;;6.23;3.83;;;20.20;99.90;;;;;;4969635;28;20602;-77
2022/11/04 13:02:23;;;;;;;5.27;4.10;;;20.20;99.90;;;;;;5021985;28;20223;-77
2022/11/04 13:05:06;;;;;;;10.23;4.80;;;20.10;99.90;;;;;;4992015;28;20204;-77
2022/11/04 13:07:49;;;;;;;7.77;4.57;;;20.10;99.90;;;;;;5020182;28;20173;-77
2022/11/04 13:11:21;;;;;;;6.40;4.23;;;20.10;99.90;;;;;;4991077;28;20661;-77
2022/11/04 13:14:12;;;;;;;7.70;4.90;;;20.10;99.90;;;;;;4995631;28;20196;-77
2022/11/04 13:16:44;;;;;;;8.87;4.43;;;20.00;99.90;;;;;;5015948;28;20180;-76
2022/11/04 13:19:32;;;;;;;6.93;4.07;;;19.90;99.90;;;;;;5009896;28;20238;-77
2022/11/04 13:22:07;;;;;;;7.67;4.17;;;19.90;99.90;;;;;;4992883;28;20180;-77
2022/11/04 13:24:39;;;;;;;10.53;5.00;;;19.80;99.90;;;;;;5014589;28;20627;-77
2022/11/04 13:27:25;;;;;;;7.10;3.90;;;19.80;99.90;;;;;;5006999;28;20235;-76
2022/11/04 13:30:21;;;;;;;8.47;5.13;;;19.90;99.90;;;;;;5008116;28;20191;-76
2022/11/04 13:33:16;;;;;;;6.00;4.37;;;19.90;99.90;;;;;;5007253;28;20193;-77
2022/11/04 13:35:56;;;;;;;8.37;4.27;;;19.90;99.90;;;;;;4986135;28;20201;-76
2022/11/04 13:38:38;;;;;;;8.83;4.43;;;19.80;99.90;;;;;;4987071;28;20189;-77
2022/11/04 13:41:50;;;;;;;8.90;4.50;;;19.80;99.90;;;;;;5013044;28;20188;-77
2022/11/04 13:44:37;;;;;;;11.60;4.17;;;19.80;99.90;;;;;;4993799;28;20259;-77
2022/11/04 13:47:23;;;;;;;7.87;4.30;;;19.90;99.90;;;;;;5027634;28;20523;-77
2022/11/04 13:49:55;;;;;;;9.40;4.67;;;19.90;99.90;;;;;;5010028;28;20513;-77
2022/11/04 13:52:28;;;;;;;5.77;4.10;;;19.80;99.90;;;;;;4997514;28;20185;-77
2022/11/04 13:55:04;;;;;;;6.97;4.03;;;19.70;99.90;;;;;;5009197;28;20189;-77
2022/11/04 13:57:51;;;;;;;5.77;4.07;;;19.70;99.90;;;;;;4994993;28;20660;-77
2022/11/04 14:00:24;;;;;;;5.73;4.03;;;19.70;99.90;;;;;;5013790;28;20238;-77
2022/11/04 14:03:00;;;;;;;8.30;4.30;;;19.70;99.90;;;;;;5011774;28;20222;-77